createdAt,value
2023-04-02T00:00:45.678Z,9.08
2023-04-02T00:01:45.724Z,9.25
2023-04-02T00:02:45.701Z,9.19
2023-04-02T00:03:45.769Z,9.14
2023-04-02T00:04:45.675Z,9.23
2023-04-02T00:05:45.678Z,9.22
2023-04-02T00:06:45.696Z,9.16
2023-04-02T00:07:45.666Z,9.18
2023-04-02T00:08:45.647Z,9.19
2023-04-02T00:09:45.638Z,9.19
2023-04-02T00:10:45.622Z,9.21
2023-04-02T00:11:45.647Z,9.19
2023-04-02T00:12:45.609Z,9.13
2023-04-02T00:13:45.642Z,9.22
2023-04-02T00:14:45.582Z,9.22
2023-04-02T00:15:45.605Z,9.22
2023-04-02T00:16:45.637Z,9.21
2023-04-02T00:17:45.584Z,9.19
2023-04-02T00:18:45.566Z,9.14
2023-04-02T00:19:45.586Z,9.23
2023-04-02T00:20:45.549Z,9.19
2023-04-02T00:21:45.602Z,9.21
2023-04-02T00:22:45.537Z,9.18
2023-04-02T00:23:45.547Z,9.13
2023-04-02T00:24:45.526Z,9.04
2023-04-02T00:25:45.691Z,9.02
2023-04-02T00:26:45.547Z,9.06
2023-04-02T00:27:45.536Z,9.06
2023-04-02T00:28:45.517Z,9.08
2023-04-02T00:29:45.511Z,9.03
2023-04-02T00:30:45.489Z,8.97
2023-04-02T00:31:45.575Z,9.06
2023-04-02T00:32:45.524Z,8.99
2023-04-02T00:33:45.504Z,9.02
2023-04-02T00:34:45.454Z,9.06
2023-04-02T00:35:45.499Z,9.02
2023-04-02T00:36:45.489Z,9.02
2023-04-02T00:37:45.461Z,9.04
2023-04-02T00:38:46.822Z,8.95
2023-04-02T00:39:45.450Z,8.89
2023-04-02T00:40:45.426Z,8.71
2023-04-02T00:41:45.431Z,8.63
2023-04-02T00:42:45.411Z,8.58
2023-04-02T00:43:45.403Z,8.56
2023-04-02T00:44:45.427Z,8.45
2023-04-02T00:45:45.447Z,8.06
2023-04-02T00:46:45.374Z,7.94
2023-04-02T00:47:45.440Z,7.85
2023-04-02T00:48:45.370Z,7.69
2023-04-02T00:49:45.371Z,7.67
2023-04-02T00:50:45.344Z,7.48
2023-04-02T00:51:45.360Z,7.51
2023-04-02T00:52:45.366Z,7.38
2023-04-02T00:53:45.347Z,7.39
2023-04-02T00:54:45.338Z,7.32
2023-04-02T00:55:45.346Z,7.43
2023-04-02T00:56:45.321Z,7.38
2023-04-02T00:57:45.344Z,7.25
2023-04-02T00:58:45.310Z,7.39
2023-04-02T00:59:45.319Z,7.33
2023-04-02T01:00:45.346Z,7.32
2023-04-02T01:01:45.345Z,7.31
2023-04-02T01:02:45.357Z,7.35
2023-04-02T01:03:45.400Z,7.18
2023-04-02T01:04:45.285Z,7.14
2023-04-02T01:05:45.311Z,7.05
2023-04-02T01:06:45.255Z,6.96
2023-04-02T01:07:45.252Z,7.11
2023-04-02T01:08:45.261Z,6.85
2023-04-02T01:09:45.261Z,7.00
2023-04-02T01:10:45.236Z,6.97
2023-04-02T01:11:45.261Z,6.96
2023-04-02T01:12:45.221Z,6.88
2023-04-02T01:13:45.224Z,6.95
2023-04-02T01:14:45.233Z,6.97
2023-04-02T01:15:45.247Z,6.93
2023-04-02T01:16:45.198Z,6.85
2023-04-02T01:17:45.299Z,6.84
2023-04-02T01:18:45.204Z,6.81
2023-04-02T01:19:45.279Z,6.84
2023-04-02T01:20:45.157Z,6.81
2023-04-02T01:21:45.179Z,6.81
2023-04-02T01:22:45.148Z,6.78
2023-04-02T01:23:45.158Z,6.79
2023-04-02T01:24:45.156Z,6.75
2023-04-02T01:25:45.191Z,6.78
2023-04-02T01:26:45.145Z,6.85
2023-04-02T01:27:45.166Z,6.74
2023-04-02T01:28:45.160Z,6.66
2023-04-02T01:29:45.143Z,6.69
2023-04-02T01:30:45.117Z,6.62
2023-04-02T01:31:45.401Z,6.59
2023-04-02T01:32:45.126Z,6.59
2023-04-02T01:33:45.126Z,6.52
2023-04-02T01:34:45.089Z,6.51
2023-04-02T01:35:45.114Z,6.46
2023-04-02T01:36:45.093Z,6.54
2023-04-02T01:37:45.103Z,6.42
2023-04-02T01:38:45.110Z,6.44
2023-04-02T01:39:45.101Z,6.48
2023-04-02T01:40:45.071Z,6.41
2023-04-02T01:41:45.073Z,6.42
2023-04-02T01:42:45.044Z,6.49
2023-04-02T01:43:45.060Z,6.45
2023-04-02T01:44:45.056Z,6.46
2023-04-02T01:45:45.081Z,6.33
2023-04-02T01:46:45.112Z,6.24
2023-04-02T01:47:45.061Z,6.41
2023-04-02T01:48:45.026Z,6.22
2023-04-02T01:49:45.023Z,6.08
2023-04-02T01:50:45.004Z,6.19
2023-04-02T01:51:45.036Z,6.11
2023-04-02T01:52:44.991Z,6.05
2023-04-02T01:53:45.008Z,6.14
2023-04-02T01:54:44.992Z,6.14
2023-04-02T01:55:45.000Z,5.99
2023-04-02T01:56:44.971Z,6.01
2023-04-02T01:57:45.001Z,6.04
2023-04-02T01:58:44.958Z,6.05
2023-04-02T01:59:45.004Z,5.98
2023-04-02T02:00:44.999Z,5.98
2023-04-02T02:01:44.977Z,6.01
2023-04-02T02:02:44.999Z,5.98
2023-04-02T02:03:44.981Z,5.93
2023-04-02T02:04:44.929Z,5.89
2023-04-02T02:05:44.940Z,5.86
2023-04-02T02:06:44.922Z,5.90
2023-04-02T02:07:44.923Z,5.82
2023-04-02T02:08:44.929Z,5.80
2023-04-02T02:09:44.933Z,5.90
2023-04-02T02:10:44.906Z,5.82
2023-04-02T02:11:44.918Z,5.90
2023-04-02T02:12:44.893Z,5.83
2023-04-02T02:13:44.908Z,5.91
2023-04-02T02:14:44.925Z,5.84
2023-04-02T02:15:44.889Z,5.83
2023-04-02T02:16:44.939Z,5.75
2023-04-02T02:17:44.949Z,5.83
2023-04-02T02:18:44.859Z,5.75
2023-04-02T02:19:44.896Z,5.66
2023-04-02T02:20:44.847Z,5.76
2023-04-02T02:21:44.868Z,5.71
2023-04-02T02:22:44.843Z,5.71
2023-04-02T02:23:44.847Z,5.75
2023-04-02T02:24:44.841Z,5.65
2023-04-02T02:25:44.862Z,5.76
2023-04-02T02:26:44.827Z,5.65
2023-04-02T02:27:44.833Z,5.73
2023-04-02T02:28:44.811Z,5.64
2023-04-02T02:29:44.821Z,5.62
2023-04-02T02:30:44.803Z,5.71
2023-04-02T02:31:44.885Z,5.64
2023-04-02T02:32:44.824Z,5.62
2023-04-02T02:33:44.795Z,5.61
2023-04-02T02:34:44.769Z,5.64
2023-04-02T02:35:44.801Z,5.62
2023-04-02T02:36:44.774Z,5.56
2023-04-02T02:37:44.773Z,5.59
2023-04-02T02:38:44.760Z,5.59
2023-04-02T02:39:44.761Z,5.57
2023-04-02T02:40:44.733Z,5.57
2023-04-02T02:41:44.777Z,5.64
2023-04-02T02:42:44.752Z,5.56
2023-04-02T02:43:44.749Z,5.51
2023-04-02T02:44:44.714Z,5.51
2023-04-02T02:45:44.752Z,5.51
2023-04-02T02:46:44.712Z,5.51
2023-04-02T02:47:44.775Z,5.51
2023-04-02T02:48:44.689Z,5.39
2023-04-02T02:49:44.712Z,5.41
2023-04-02T02:50:44.703Z,5.35
2023-04-02T02:51:44.707Z,5.36
2023-04-02T02:52:44.703Z,5.39
2023-04-02T02:53:44.704Z,5.41
2023-04-02T02:54:44.661Z,5.30
2023-04-02T02:55:44.666Z,5.38
2023-04-02T02:56:44.676Z,5.46
2023-04-02T02:57:44.666Z,5.26
2023-04-02T02:58:44.650Z,5.23
2023-04-02T02:59:44.652Z,5.28
2023-04-02T03:00:44.625Z,5.29
2023-04-02T03:01:44.712Z,5.25
2023-04-02T03:02:44.817Z,5.23
2023-04-02T03:03:45.070Z,5.14
2023-04-02T03:04:44.603Z,5.14
2023-04-02T03:05:44.613Z,5.15
2023-04-02T03:06:44.592Z,5.08
2023-04-02T03:07:44.600Z,5.15
2023-04-02T03:08:44.599Z,5.15
2023-04-02T03:09:44.599Z,5.10
2023-04-02T03:10:44.564Z,5.12
2023-04-02T03:11:44.600Z,5.07
2023-04-02T03:12:44.573Z,5.11
2023-04-02T03:13:44.578Z,5.04
2023-04-02T03:14:44.618Z,5.00
2023-04-02T03:15:44.591Z,5.07
2023-04-02T03:16:44.531Z,5.05
2023-04-02T03:17:44.575Z,5.08
2023-04-02T03:18:44.529Z,5.02
2023-04-02T03:19:44.541Z,4.99
2023-04-02T03:20:44.527Z,4.97
2023-04-02T03:21:44.524Z,5.04
2023-04-02T03:22:44.517Z,4.93
2023-04-02T03:23:44.533Z,5.00
2023-04-02T03:24:44.509Z,4.93
2023-04-02T03:25:44.508Z,4.94
2023-04-02T03:26:44.483Z,4.94
2023-04-02T03:27:44.518Z,4.93
2023-04-02T03:28:44.475Z,4.94
2023-04-02T03:29:44.509Z,4.89
2023-04-02T03:30:44.489Z,4.90
2023-04-02T03:31:44.565Z,4.93
2023-04-02T03:32:44.490Z,5.07
2023-04-02T03:33:44.460Z,4.92
2023-04-02T03:34:44.442Z,4.93
2023-04-02T03:35:44.467Z,4.94
2023-04-02T03:36:44.427Z,4.82
2023-04-02T03:37:44.473Z,4.82
2023-04-02T03:38:44.425Z,4.89
2023-04-02T03:39:44.462Z,4.90
2023-04-02T03:40:44.408Z,4.77
2023-04-02T03:41:44.441Z,4.86
2023-04-02T03:42:44.409Z,4.84
2023-04-02T03:43:44.408Z,4.82
2023-04-02T03:44:44.400Z,4.82
2023-04-02T03:45:44.419Z,4.84
2023-04-02T03:46:44.493Z,4.89
2023-04-02T03:47:44.457Z,4.86
2023-04-02T03:48:44.370Z,4.82
2023-04-02T03:49:44.418Z,4.87
2023-04-02T03:50:44.371Z,4.86
2023-04-02T03:51:44.393Z,4.74
2023-04-02T03:52:44.354Z,4.86
2023-04-02T03:53:44.383Z,4.77
2023-04-02T03:54:53.967Z,4.84
2023-04-02T03:55:45.369Z,4.84
2023-04-02T03:56:44.345Z,4.82
2023-04-02T03:57:44.364Z,4.75
2023-04-02T03:58:44.321Z,4.82
2023-04-02T03:59:44.352Z,4.77
2023-04-02T04:00:44.316Z,4.70
2023-04-02T04:01:44.361Z,4.67
2023-04-02T04:02:44.365Z,4.70
2023-04-02T04:03:44.384Z,4.66
2023-04-02T04:04:44.292Z,4.63
2023-04-02T04:05:44.303Z,4.67
2023-04-02T04:06:44.285Z,4.67
2023-04-02T04:07:44.322Z,4.73
2023-04-02T04:08:44.266Z,4.70
2023-04-02T04:09:44.283Z,4.62
2023-04-02T04:10:44.298Z,4.70
2023-04-02T04:11:44.270Z,4.67
2023-04-02T04:12:44.237Z,4.67
2023-04-02T04:13:44.292Z,4.73
2023-04-02T04:14:45.372Z,4.59
2023-04-02T04:15:44.247Z,4.58
2023-04-02T04:16:44.250Z,4.58
2023-04-02T04:17:44.254Z,4.62
2023-04-02T04:18:44.218Z,4.73
2023-04-02T04:19:44.246Z,4.59
2023-04-02T04:20:44.202Z,4.52
2023-04-02T04:21:44.218Z,4.60
2023-04-02T04:22:44.195Z,4.45
2023-04-02T04:23:44.208Z,4.55
2023-04-02T04:24:44.195Z,4.56
2023-04-02T04:25:44.185Z,4.44
2023-04-02T04:26:44.182Z,4.48
2023-04-02T04:27:44.202Z,4.45
2023-04-02T04:28:44.170Z,4.55
2023-04-02T04:29:44.197Z,4.40
2023-04-02T04:30:44.170Z,4.32
2023-04-02T04:31:44.186Z,4.40
2023-04-02T04:32:44.170Z,4.48
2023-04-02T04:33:44.178Z,4.37
2023-04-02T04:34:44.124Z,4.38
2023-04-02T04:35:44.185Z,4.31
2023-04-02T04:36:44.119Z,4.35
2023-04-02T04:37:44.122Z,4.32
2023-04-02T04:38:44.123Z,4.32
2023-04-02T04:39:44.137Z,4.31
2023-04-02T04:40:44.113Z,4.28
2023-04-02T04:41:44.128Z,4.13
2023-04-02T04:42:44.103Z,4.10
2023-04-02T04:43:44.102Z,4.16
2023-04-02T04:44:44.074Z,4.24
2023-04-02T04:45:44.135Z,4.22
2023-04-02T04:46:44.084Z,4.22
2023-04-02T04:47:44.106Z,4.13
2023-04-02T04:48:44.057Z,4.06
2023-04-02T04:49:44.055Z,4.08
2023-04-02T04:50:44.068Z,4.12
2023-04-02T04:51:44.082Z,4.10
2023-04-02T04:52:44.047Z,4.14
2023-04-02T04:53:44.040Z,4.05
2023-04-02T04:54:44.030Z,4.14
2023-04-02T04:55:44.068Z,4.14
2023-04-02T04:56:44.029Z,4.14
2023-04-02T04:57:44.032Z,4.13
2023-04-02T04:58:43.997Z,4.17
2023-04-02T04:59:44.023Z,4.10
2023-04-02T05:00:44.000Z,4.08
2023-04-02T05:01:44.054Z,4.06
2023-04-02T05:02:44.024Z,4.05
2023-04-02T05:03:43.983Z,4.06
2023-04-02T05:04:44.042Z,4.08
2023-04-02T05:05:43.989Z,4.08
2023-04-02T05:06:43.962Z,4.08
2023-04-02T05:07:43.969Z,4.13
2023-04-02T05:08:43.958Z,4.08
2023-04-02T05:09:43.984Z,4.14
2023-04-02T05:10:43.955Z,4.14
2023-04-02T05:11:43.954Z,4.12
2023-04-02T05:12:43.932Z,4.10
2023-04-02T05:13:43.928Z,4.16
2023-04-02T05:14:43.923Z,4.19
2023-04-02T05:15:43.992Z,4.14
2023-04-02T05:16:43.906Z,4.17
2023-04-02T05:17:43.981Z,4.06
2023-04-02T05:18:43.890Z,3.98
2023-04-02T05:19:43.917Z,3.98
2023-04-02T05:20:43.874Z,4.05
2023-04-02T05:21:43.895Z,3.98
2023-04-02T05:22:43.885Z,4.05
2023-04-02T05:23:43.920Z,4.06
2023-04-02T05:24:43.860Z,3.95
2023-04-02T05:25:43.864Z,3.99
2023-04-02T05:26:43.855Z,4.01
2023-04-02T05:27:43.875Z,4.05
2023-04-02T05:28:43.833Z,4.02
2023-04-02T05:29:43.865Z,4.01
2023-04-02T05:30:43.828Z,3.91
2023-04-02T05:31:43.891Z,3.98
2023-04-02T05:32:43.857Z,3.92
2023-04-02T05:33:43.826Z,4.01
2023-04-02T05:34:43.811Z,3.87
2023-04-02T05:35:43.854Z,3.88
2023-04-02T05:36:43.821Z,3.77
2023-04-02T05:37:43.814Z,3.80
2023-04-02T05:38:43.788Z,3.81
2023-04-02T05:39:43.788Z,3.87
2023-04-02T05:40:43.786Z,3.87
2023-04-02T05:41:43.791Z,3.88
2023-04-02T05:42:43.767Z,3.81
2023-04-02T05:43:43.774Z,3.84
2023-04-02T05:44:43.756Z,3.91
2023-04-02T05:45:43.783Z,3.83
2023-04-02T05:46:43.810Z,3.76
2023-04-02T05:47:43.789Z,3.68
2023-04-02T05:48:43.768Z,3.68
2023-04-02T05:49:43.737Z,3.68
2023-04-02T05:50:43.729Z,3.60
2023-04-02T05:51:43.726Z,3.68
2023-04-02T05:52:43.696Z,3.68
2023-04-02T05:53:43.726Z,3.69
2023-04-02T05:54:43.714Z,3.60
2023-04-02T05:55:43.705Z,3.55
2023-04-02T05:56:43.679Z,3.63
2023-04-02T05:57:52.867Z,3.66
2023-04-02T05:58:45.632Z,3.60
2023-04-02T05:59:43.671Z,3.68
2023-04-02T06:00:43.678Z,3.63
2023-04-02T06:01:43.710Z,3.56
2023-04-02T06:02:43.714Z,3.63
2023-04-02T06:03:43.771Z,3.59
2023-04-02T06:04:43.646Z,3.63
2023-04-02T06:05:43.650Z,3.60
2023-04-02T06:06:43.649Z,3.51
2023-04-02T06:07:43.636Z,3.59
2023-04-02T06:08:43.621Z,3.63
2023-04-02T06:09:43.621Z,3.63
2023-04-02T06:10:43.609Z,3.53
2023-04-02T06:11:43.620Z,3.45
2023-04-02T06:12:43.627Z,3.48
2023-04-02T06:13:43.634Z,3.48
2023-04-02T06:14:43.625Z,3.47
2023-04-02T06:15:44.500Z,3.55
2023-04-02T06:16:43.625Z,3.56
2023-04-02T06:17:43.613Z,3.41
2023-04-02T06:18:43.566Z,3.44
2023-04-02T06:19:43.589Z,3.53
2023-04-02T06:20:43.561Z,3.48
2023-04-02T06:21:43.566Z,3.47
2023-04-02T06:22:43.539Z,3.50
2023-04-02T06:23:43.553Z,3.45
2023-04-02T06:24:43.552Z,3.48
2023-04-02T06:25:43.534Z,3.45
2023-04-02T06:26:43.519Z,3.51
2023-04-02T06:27:43.536Z,3.44
2023-04-02T06:28:43.512Z,3.40
2023-04-02T06:29:43.536Z,3.45
2023-04-02T06:30:43.566Z,3.37
2023-04-02T06:31:43.517Z,3.47
2023-04-02T06:32:43.523Z,3.48
2023-04-02T06:33:43.502Z,3.50
2023-04-02T06:34:43.484Z,3.50
2023-04-02T06:35:43.587Z,3.41
2023-04-02T06:36:43.465Z,3.48
2023-04-02T06:37:43.485Z,3.50
2023-04-02T06:38:43.462Z,3.44
2023-04-02T06:39:43.469Z,3.45
2023-04-02T06:40:43.446Z,3.37
2023-04-02T06:41:43.481Z,3.37
2023-04-02T06:42:43.435Z,3.41
2023-04-02T06:43:43.454Z,3.41
2023-04-02T06:44:43.446Z,3.44
2023-04-02T06:45:43.481Z,3.36
2023-04-02T06:46:43.450Z,3.45
2023-04-02T06:47:43.483Z,3.48
2023-04-02T06:48:43.410Z,3.41
2023-04-02T06:49:43.426Z,3.31
2023-04-02T06:50:43.420Z,3.40
2023-04-02T06:51:43.416Z,3.47
2023-04-02T06:52:43.389Z,3.45
2023-04-02T06:53:43.408Z,3.37
2023-04-02T06:54:43.425Z,3.47
2023-04-02T06:55:43.427Z,3.41
2023-04-02T06:56:43.367Z,3.48
2023-04-02T06:57:43.402Z,3.50
2023-04-02T06:58:43.363Z,3.45
2023-04-02T06:59:43.365Z,3.45
2023-04-02T07:00:43.370Z,3.50
2023-04-02T07:01:43.401Z,3.42
2023-04-02T07:02:43.385Z,3.42
2023-04-02T07:03:43.351Z,3.36
2023-04-02T07:04:43.323Z,3.31
2023-04-02T07:05:43.357Z,3.29
2023-04-02T07:06:43.358Z,3.32
2023-04-02T07:07:43.320Z,3.31
2023-04-02T07:08:43.315Z,3.41
2023-04-02T07:09:43.309Z,3.48
2023-04-02T07:10:43.290Z,3.44
2023-04-02T07:11:43.305Z,3.47
2023-04-02T07:12:43.289Z,3.50
2023-04-02T07:13:43.299Z,3.60
2023-04-02T07:14:43.286Z,3.48
2023-04-02T07:15:43.302Z,3.58
2023-04-02T07:16:43.276Z,3.55
2023-04-02T07:17:43.367Z,3.63
2023-04-02T07:18:43.244Z,3.63
2023-04-02T07:19:43.253Z,3.55
2023-04-02T07:20:43.239Z,3.48
2023-04-02T07:21:43.243Z,3.42
2023-04-02T07:22:43.213Z,3.48
2023-04-02T07:23:43.268Z,3.44
2023-04-02T07:24:43.199Z,3.44
2023-04-02T07:25:43.262Z,3.41
2023-04-02T07:26:43.234Z,3.36
2023-04-02T07:27:43.209Z,3.42
2023-04-02T07:28:43.208Z,3.41
2023-04-02T07:29:43.207Z,3.41
2023-04-02T07:30:43.194Z,3.45
2023-04-02T07:31:43.235Z,3.45
2023-04-02T07:32:43.227Z,3.53
2023-04-02T07:33:43.208Z,3.37
2023-04-02T07:34:43.170Z,3.41
2023-04-02T07:35:43.202Z,3.40
2023-04-02T07:36:43.156Z,3.37
2023-04-02T07:37:43.160Z,3.34
2023-04-02T07:38:43.140Z,3.34
2023-04-02T07:39:43.202Z,3.26
2023-04-02T07:40:43.126Z,3.31
2023-04-02T07:41:43.145Z,3.19
2023-04-02T07:42:43.129Z,3.28
2023-04-02T07:43:43.137Z,3.26
2023-04-02T07:44:43.126Z,3.28
2023-04-02T07:45:43.129Z,3.28
2023-04-02T07:46:43.149Z,3.25
2023-04-02T07:47:43.165Z,3.28
2023-04-02T07:48:43.100Z,3.19
2023-04-02T07:49:43.107Z,3.26
2023-04-02T07:50:43.085Z,3.11
2023-04-02T07:51:43.093Z,3.18
2023-04-02T07:52:43.075Z,3.10
2023-04-02T07:53:43.074Z,3.10
2023-04-02T07:54:43.079Z,3.16
2023-04-02T07:55:43.089Z,3.08
2023-04-02T07:56:43.067Z,3.03
2023-04-02T07:57:45.655Z,3.04
2023-04-02T07:58:43.074Z,3.08
2023-04-02T07:59:43.061Z,3.14
2023-04-02T08:00:43.044Z,3.10
2023-04-02T08:01:43.335Z,3.10
2023-04-02T08:02:43.096Z,3.07
2023-04-02T08:03:43.100Z,3.03
2023-04-02T08:04:43.025Z,3.11
2023-04-02T08:05:43.029Z,3.08
2023-04-02T08:06:43.021Z,3.04
2023-04-02T08:07:43.032Z,3.08
2023-04-02T08:08:42.989Z,3.05
2023-04-02T08:09:43.004Z,3.08
2023-04-02T08:10:42.991Z,3.00
2023-04-02T08:11:42.995Z,3.07
2023-04-02T08:12:42.988Z,3.05
2023-04-02T08:13:43.014Z,3.04
2023-04-02T08:14:42.962Z,3.05
2023-04-02T08:15:42.994Z,3.08
2023-04-02T08:16:42.969Z,3.16
2023-04-02T08:17:43.023Z,3.00
2023-04-02T08:18:42.947Z,2.92
2023-04-02T08:19:54.101Z,2.90
2023-04-02T08:20:43.955Z,3.00
2023-04-02T08:21:42.953Z,2.87
2023-04-02T08:22:42.922Z,2.98
2023-04-02T08:23:42.974Z,3.05
2023-04-02T08:24:42.928Z,3.10
2023-04-02T08:25:42.924Z,2.90
2023-04-02T08:26:45.423Z,2.97
2023-04-02T08:27:42.923Z,3.03
2023-04-02T08:28:42.924Z,3.08
2023-04-02T08:29:42.924Z,3.04
2023-04-02T08:30:42.898Z,3.08
2023-04-02T08:31:42.890Z,2.97
2023-04-02T08:32:42.882Z,2.93
2023-04-02T08:33:42.915Z,3.03
2023-04-02T08:34:42.902Z,2.92
2023-04-02T08:35:42.905Z,2.98
2023-04-02T08:36:42.858Z,2.93
2023-04-02T08:37:42.849Z,3.00
2023-04-02T08:38:42.862Z,3.04
2023-04-02T08:39:42.835Z,2.90
2023-04-02T08:40:42.847Z,2.86
2023-04-02T08:41:42.849Z,2.92
2023-04-02T08:42:42.825Z,2.93
2023-04-02T08:43:42.850Z,2.95
2023-04-02T08:44:42.844Z,3.10
2023-04-02T08:45:43.013Z,3.10
2023-04-02T08:46:42.800Z,2.89
2023-04-02T08:47:42.855Z,2.95
2023-04-02T08:48:42.815Z,2.98
2023-04-02T08:49:42.812Z,2.97
2023-04-02T08:50:42.811Z,2.89
2023-04-02T08:51:42.783Z,2.89
2023-04-02T08:52:42.763Z,2.86
2023-04-02T08:53:42.799Z,2.93
2023-04-02T08:54:42.814Z,2.80
2023-04-02T08:55:42.799Z,2.79
2023-04-02T08:56:42.736Z,2.82
2023-04-02T08:57:42.745Z,2.87
2023-04-02T08:58:42.734Z,2.90
2023-04-02T08:59:42.739Z,2.82
2023-04-02T09:00:42.726Z,2.95
2023-04-02T09:01:42.816Z,3.04
2023-04-02T09:02:42.750Z,2.98
2023-04-02T09:03:42.752Z,2.82
2023-04-02T09:04:42.747Z,2.92
2023-04-02T09:05:42.730Z,2.92
2023-04-02T09:06:42.736Z,2.95
2023-04-02T09:07:42.699Z,3.08
2023-04-02T09:08:42.694Z,2.97
2023-04-02T09:09:42.689Z,3.01
2023-04-02T09:10:42.703Z,3.04
2023-04-02T09:11:42.678Z,3.01
2023-04-02T09:12:42.663Z,3.10
2023-04-02T09:13:42.678Z,2.97
2023-04-02T09:14:42.663Z,3.08
2023-04-02T09:15:42.717Z,2.97
2023-04-02T09:16:42.663Z,3.05
2023-04-02T09:17:52.899Z,2.92
2023-04-02T09:18:43.634Z,3.03
2023-04-02T09:19:42.640Z,2.92
2023-04-02T09:20:42.622Z,2.95
2023-04-02T09:21:42.652Z,2.89
2023-04-02T09:22:42.637Z,3.04
2023-04-02T09:23:42.632Z,3.11
2023-04-02T09:24:42.612Z,3.22
2023-04-02T09:25:43.395Z,3.11
2023-04-02T09:26:42.596Z,3.07
2023-04-02T09:27:42.639Z,3.04
2023-04-02T09:28:42.584Z,3.08
2023-04-02T09:29:42.583Z,3.28
2023-04-02T09:30:42.580Z,3.25
2023-04-02T09:31:42.633Z,3.21
2023-04-02T09:32:42.575Z,3.28
2023-04-02T09:33:42.631Z,3.29
2023-04-02T09:34:42.543Z,3.31
2023-04-02T09:35:42.731Z,3.22
2023-04-02T09:36:42.524Z,3.47
2023-04-02T09:37:42.565Z,3.59
2023-04-02T09:38:42.545Z,3.45
2023-04-02T09:39:42.561Z,3.40
2023-04-02T09:40:42.567Z,3.55
2023-04-02T09:41:43.743Z,3.56
2023-04-02T09:42:42.519Z,3.63
2023-04-02T09:43:42.505Z,3.59
2023-04-02T09:44:42.486Z,3.60
2023-04-02T09:45:42.515Z,3.47
2023-04-02T09:46:42.520Z,3.62
2023-04-02T09:47:42.671Z,3.48
2023-04-02T09:48:42.474Z,3.50
2023-04-02T09:49:42.501Z,3.56
2023-04-02T09:50:42.488Z,3.66
2023-04-02T09:51:42.501Z,3.62
2023-04-02T09:52:42.439Z,3.48
2023-04-02T09:53:42.794Z,3.70
2023-04-02T09:54:42.470Z,3.66
2023-04-02T09:55:42.488Z,3.76
2023-04-02T09:56:42.438Z,3.81
2023-04-02T09:57:42.438Z,3.76
2023-04-02T09:58:42.416Z,3.83
2023-04-02T09:59:42.455Z,3.78
2023-04-02T10:00:42.467Z,3.77
2023-04-02T10:01:42.558Z,3.58
2023-04-02T10:02:42.417Z,3.47
2023-04-02T10:03:42.413Z,3.59
2023-04-02T10:04:42.505Z,3.68
2023-04-02T10:05:42.659Z,3.65
2023-04-02T10:06:42.381Z,3.66
2023-04-02T10:07:42.401Z,3.87
2023-04-02T10:08:42.373Z,3.76
2023-04-02T10:09:42.384Z,3.81
2023-04-02T10:10:42.398Z,3.65
2023-04-02T10:11:46.764Z,3.76
2023-04-02T10:12:42.346Z,3.70
2023-04-02T10:13:42.358Z,3.60
2023-04-02T10:14:42.352Z,3.70
2023-04-02T10:15:42.382Z,3.50
2023-04-02T10:16:42.439Z,3.55
2023-04-02T10:17:42.388Z,3.50
2023-04-02T10:18:42.310Z,3.51
2023-04-02T10:19:42.322Z,3.69
2023-04-02T10:20:51.001Z,3.60
2023-04-02T10:21:43.359Z,3.51
2023-04-02T10:22:42.332Z,3.62
2023-04-02T10:23:42.332Z,3.62
2023-04-02T10:24:42.306Z,3.48
2023-04-02T10:25:42.290Z,3.45
2023-04-02T10:26:42.270Z,3.50
2023-04-02T10:27:42.298Z,3.41
2023-04-02T10:28:42.312Z,3.25
2023-04-02T10:29:42.295Z,3.21
2023-04-02T10:30:42.314Z,3.22
2023-04-02T10:31:42.262Z,3.37
2023-04-02T10:32:42.319Z,3.45
2023-04-02T10:33:42.256Z,3.42
2023-04-02T10:34:43.147Z,3.31
2023-04-02T10:35:42.257Z,3.40
2023-04-02T10:36:42.246Z,3.40
2023-04-02T10:37:42.253Z,3.47
2023-04-02T10:38:42.243Z,3.42
2023-04-02T10:39:42.225Z,3.11
2023-04-02T10:40:42.276Z,3.32
2023-04-02T10:41:42.248Z,3.26
2023-04-02T10:42:42.205Z,3.23
2023-04-02T10:43:42.211Z,3.23
2023-04-02T10:44:42.197Z,3.23
2023-04-02T10:45:42.274Z,3.11
2023-04-02T10:46:42.293Z,3.11
2023-04-02T10:47:42.258Z,3.21
2023-04-02T10:48:42.177Z,3.29
2023-04-02T10:49:42.241Z,3.40
2023-04-02T10:50:42.180Z,3.29
2023-04-02T10:51:42.195Z,3.16
2023-04-02T10:52:42.163Z,3.29
2023-04-02T10:53:42.160Z,3.44
2023-04-02T10:54:42.163Z,3.51
2023-04-02T10:55:42.149Z,3.50
2023-04-02T10:56:50.648Z,3.47
2023-04-02T10:57:43.317Z,3.59
2023-04-02T10:58:42.140Z,3.47
2023-04-02T10:59:42.132Z,3.60
2023-04-02T11:00:42.133Z,3.68
2023-04-02T11:01:42.186Z,3.56
2023-04-02T11:02:42.110Z,3.81
2023-04-02T11:03:42.263Z,3.74
2023-04-02T11:04:42.094Z,3.62
2023-04-02T11:05:42.094Z,3.63
2023-04-02T11:06:42.084Z,3.59
2023-04-02T11:07:42.112Z,3.63
2023-04-02T11:08:42.110Z,3.62
2023-04-02T11:09:42.087Z,3.59
2023-04-02T11:10:42.073Z,3.78
2023-04-02T11:11:42.063Z,3.73
2023-04-02T11:12:42.295Z,3.87
2023-04-02T11:13:42.084Z,3.87
2023-04-02T11:14:42.036Z,3.78
2023-04-02T11:15:42.090Z,3.77
2023-04-02T11:16:44.199Z,3.73
2023-04-02T11:17:42.078Z,3.74
2023-04-02T11:18:42.038Z,3.63
2023-04-02T11:19:42.038Z,3.59
2023-04-02T11:20:42.042Z,3.59
2023-04-02T11:21:54.982Z,3.48
2023-04-02T11:22:42.989Z,3.42
2023-04-02T11:23:42.023Z,3.58
2023-04-02T11:24:42.030Z,3.62
2023-04-02T11:25:42.014Z,3.59
2023-04-02T11:26:42.028Z,3.55
2023-04-02T11:27:41.989Z,3.73
2023-04-02T11:28:41.998Z,3.63
2023-04-02T11:29:41.997Z,3.58
2023-04-02T11:30:41.954Z,3.41
2023-04-02T11:31:42.000Z,3.50
2023-04-02T11:32:41.989Z,3.53
2023-04-02T11:33:44.756Z,3.62
2023-04-02T11:34:41.972Z,3.63
2023-04-02T11:35:42.017Z,3.70
2023-04-02T11:36:41.922Z,3.51
2023-04-02T11:37:42.016Z,3.48
2023-04-02T11:38:41.931Z,3.41
2023-04-02T11:39:41.921Z,3.31
2023-04-02T11:40:41.917Z,3.22
2023-04-02T11:41:41.934Z,3.23
2023-04-02T11:42:41.906Z,3.21
2023-04-02T11:43:41.961Z,3.28
2023-04-02T11:44:41.912Z,3.40
2023-04-02T11:45:50.278Z,3.34
2023-04-02T11:46:42.905Z,3.32
2023-04-02T11:47:41.973Z,3.26
2023-04-02T11:48:41.888Z,3.22
2023-04-02T11:49:41.888Z,3.23
2023-04-02T11:50:41.889Z,3.21
2023-04-02T11:51:41.909Z,3.22
2023-04-02T11:52:41.931Z,3.36
2023-04-02T11:53:41.877Z,3.22
2023-04-02T11:54:41.859Z,3.14
2023-04-02T11:55:41.902Z,3.28
2023-04-02T11:56:41.833Z,3.32
2023-04-02T11:57:41.909Z,3.23
2023-04-02T11:58:48.853Z,3.28
2023-04-02T11:59:41.851Z,3.37
2023-04-02T12:00:41.809Z,3.37
2023-04-02T12:01:41.843Z,3.19
2023-04-02T12:02:41.891Z,3.32
2023-04-02T12:03:41.784Z,3.32
2023-04-02T12:04:41.783Z,3.26
2023-04-02T12:05:41.957Z,3.40
2023-04-02T12:06:41.783Z,3.42
2023-04-02T12:07:41.770Z,3.50
2023-04-02T12:08:54.301Z,3.56
2023-04-02T12:09:42.781Z,3.32
2023-04-02T12:10:41.768Z,3.41
2023-04-02T12:11:41.823Z,3.45
2023-04-02T12:12:41.750Z,3.45
2023-04-02T12:13:41.763Z,3.31
2023-04-02T12:14:41.757Z,3.36
2023-04-02T12:15:41.748Z,3.31
2023-04-02T12:16:41.818Z,3.23
2023-04-02T12:17:41.743Z,3.26
2023-04-02T12:18:41.704Z,3.23
2023-04-02T12:19:41.763Z,3.18
2023-04-02T12:20:41.695Z,3.31
2023-04-02T12:21:41.738Z,3.29
2023-04-02T12:22:41.692Z,3.32
2023-04-02T12:23:41.694Z,3.13
2023-04-02T12:24:41.696Z,3.22
2023-04-02T12:25:41.688Z,3.36
2023-04-02T12:26:41.660Z,3.40
2023-04-02T12:27:41.687Z,3.37
2023-04-02T12:28:41.684Z,3.32
2023-04-02T12:29:41.674Z,3.23
2023-04-02T12:30:41.740Z,3.34
2023-04-02T12:31:41.662Z,3.34
2023-04-02T12:32:41.721Z,3.34
2023-04-02T12:33:41.643Z,3.36
2023-04-02T12:34:41.669Z,3.18
2023-04-02T12:35:41.700Z,3.14
2023-04-02T12:36:41.638Z,3.14
2023-04-02T12:37:41.626Z,3.22
2023-04-02T12:38:41.617Z,3.32
2023-04-02T12:39:41.650Z,3.37
2023-04-02T12:40:41.652Z,3.23
2023-04-02T12:41:41.607Z,3.25
2023-04-02T12:42:41.594Z,3.32
2023-04-02T12:43:41.646Z,3.37
2023-04-02T12:44:41.590Z,3.48
2023-04-02T12:45:41.615Z,3.42
2023-04-02T12:46:41.638Z,3.41
2023-04-02T12:47:41.607Z,3.45
2023-04-02T12:48:41.555Z,3.62
2023-04-02T12:49:41.590Z,3.60
2023-04-02T12:50:41.543Z,3.58
2023-04-02T12:51:41.552Z,3.55
2023-04-02T12:52:41.536Z,3.60
2023-04-02T12:53:41.544Z,3.36
2023-04-02T12:54:41.518Z,3.36
2023-04-02T12:55:41.573Z,3.45
2023-04-02T12:56:41.536Z,3.65
2023-04-02T12:57:41.581Z,3.55
2023-04-02T12:58:41.496Z,3.62
2023-04-02T12:59:41.519Z,3.56
2023-04-02T13:00:41.496Z,3.69
2023-04-02T13:01:41.562Z,3.81
2023-04-02T13:02:41.510Z,3.69
2023-04-02T13:03:41.519Z,3.81
2023-04-02T13:04:41.466Z,3.83
2023-04-02T13:05:41.558Z,3.65
2023-04-02T13:06:41.463Z,3.81
2023-04-02T13:07:41.480Z,3.99
2023-04-02T13:08:41.502Z,3.91
2023-04-02T13:09:41.490Z,3.92
2023-04-02T13:10:41.431Z,3.87
2023-04-02T13:11:41.476Z,3.66
2023-04-02T13:12:41.448Z,3.80
2023-04-02T13:13:41.447Z,3.98
2023-04-02T13:14:41.441Z,4.01
2023-04-02T13:15:41.499Z,4.06
2023-04-02T13:16:41.406Z,4.16
2023-04-02T13:17:41.503Z,4.13
2023-04-02T13:18:41.381Z,4.17